sensor_id;sensor_type;location;lat;lon;timestamp;temperature;humidity
36134;DHT22;40492;43.524;-1.510;2022-07-10T00:00:29;21.40;99.90
36134;DHT22;40492;43.524;-1.510;2022-07-10T00:02:56;21.50;99.90
36134;DHT22;40492;43.524;-1.510;2022-07-10T00:05:24;21.50;99.90
36134;DHT22;40492;43.524;-1.510;2022-07-10T00:07:50;21.40;99.90
36134;DHT22;40492;43.524;-1.510;2022-07-10T00:10:18;21.40;99.90
36134;DHT22;40492;43.524;-1.510;2022-07-10T00:12:45;21.30;99.90
36134;DHT22;40492;43.524;-1.510;2022-07-10T00:15:11;21.40;99.90
36134;DHT22;40492;43.524;-1.510;2022-07-10T00:17:37;21.50;99.90
36134;DHT22;40492;43.524;-1.510;2022-07-10T00:20:06;21.40;99.90
36134;DHT22;40492;43.524;-1.510;2022-07-10T00:22:36;21.40;99.90
36134;DHT22;40492;43.524;-1.510;2022-07-10T00:25:07;21.30;99.90
36134;DHT22;40492;43.524;-1.510;2022-07-10T00:27:33;21.20;99.90
36134;DHT22;40492;43.524;-1.510;2022-07-10T00:29:59;21.20;99.90
36134;DHT22;40492;43.524;-1.510;2022-07-10T00:32:25;21.20;99.90
36134;DHT22;40492;43.524;-1.510;2022-07-10T00:34:51;21.20;99.90
36134;DHT22;40492;43.524;-1.510;2022-07-10T00:37:18;21.00;99.90
36134;DHT22;40492;43.524;-1.510;2022-07-10T00:39:46;21.00;99.90
36134;DHT22;40492;43.524;-1.510;2022-07-10T00:42:14;21.00;99.90
36134;DHT22;40492;43.524;-1.510;2022-07-10T00:44:43;20.90;99.90
36134;DHT22;40492;43.524;-1.510;2022-07-10T00:47:10;20.90;99.90
36134;DHT22;40492;43.524;-1.510;2022-07-10T00:49:38;20.70;99.90
36134;DHT22;40492;43.524;-1.510;2022-07-10T00:52:11;20.80;99.90
36134;DHT22;40492;43.524;-1.510;2022-07-10T00:54:38;20.80;99.90
36134;DHT22;40492;43.524;-1.510;2022-07-10T00:57:07;20.70;99.90
36134;DHT22;40492;43.524;-1.510;2022-07-10T00:59:34;20.60;99.90
36134;DHT22;40492;43.524;-1.510;2022-07-10T01:02:04;20.50;99.90
36134;DHT22;40492;43.524;-1.510;2022-07-10T01:04:32;20.40;99.90
36134;DHT22;40492;43.524;-1.510;2022-07-10T01:06:58;20.40;99.90
36134;DHT22;40492;43.524;-1.510;2022-07-10T01:09:25;20.30;99.90
36134;DHT22;40492;43.524;-1.510;2022-07-10T01:11:51;20.20;99.90
36134;DHT22;40492;43.524;-1.510;2022-07-10T01:14:17;20.20;99.90
36134;DHT22;40492;43.524;-1.510;2022-07-10T01:16:43;20.10;99.90
36134;DHT22;40492;43.524;-1.510;2022-07-10T01:19:09;20.10;99.90
36134;DHT22;40492;43.524;-1.510;2022-07-10T01:21:36;20.00;99.90
36134;DHT22;40492;43.524;-1.510;2022-07-10T01:24:10;19.90;99.90
36134;DHT22;40492;43.524;-1.510;2022-07-10T01:26:37;19.70;99.90
36134;DHT22;40492;43.524;-1.510;2022-07-10T01:29:08;19.70;99.90
36134;DHT22;40492;43.524;-1.510;2022-07-10T01:31:34;19.60;99.90
36134;DHT22;40492;43.524;-1.510;2022-07-10T01:34:01;19.50;99.90
36134;DHT22;40492;43.524;-1.510;2022-07-10T01:36:28;19.40;99.90
36134;DHT22;40492;43.524;-1.510;2022-07-10T01:38:58;19.40;99.90
36134;DHT22;40492;43.524;-1.510;2022-07-10T01:41:25;19.30;99.90
36134;DHT22;40492;43.524;-1.510;2022-07-10T01:43:52;19.30;99.90
36134;DHT22;40492;43.524;-1.510;2022-07-10T01:46:18;19.20;99.90
36134;DHT22;40492;43.524;-1.510;2022-07-10T01:48:45;19.10;99.90
36134;DHT22;40492;43.524;-1.510;2022-07-10T01:51:11;19.10;99.90
36134;DHT22;40492;43.524;-1.510;2022-07-10T01:53:38;19.10;99.90
36134;DHT22;40492;43.524;-1.510;2022-07-10T01:56:08;19.00;99.90
36134;DHT22;40492;43.524;-1.510;2022-07-10T01:58:34;19.00;99.90
36134;DHT22;40492;43.524;-1.510;2022-07-10T02:01:01;19.00;99.90
36134;DHT22;40492;43.524;-1.510;2022-07-10T02:03:28;18.90;99.90
36134;DHT22;40492;43.524;-1.510;2022-07-10T02:06:12;18.90;99.90
36134;DHT22;40492;43.524;-1.510;2022-07-10T02:08:38;18.90;99.90
36134;DHT22;40492;43.524;-1.510;2022-07-10T02:11:04;18.80;99.90
36134;DHT22;40492;43.524;-1.510;2022-07-10T02:13:30;18.80;99.90
36134;DHT22;40492;43.524;-1.510;2022-07-10T02:15:57;18.70;99.90
36134;DHT22;40492;43.524;-1.510;2022-07-10T02:18:24;18.70;99.90
36134;DHT22;40492;43.524;-1.510;2022-07-10T02:20:51;18.70;99.90
36134;DHT22;40492;43.524;-1.510;2022-07-10T02:23:17;18.60;99.90
36134;DHT22;40492;43.524;-1.510;2022-07-10T02:25:43;18.60;99.90
36134;DHT22;40492;43.524;-1.510;2022-07-10T02:28:09;18.50;99.90
36134;DHT22;40492;43.524;-1.510;2022-07-10T02:30:35;18.50;99.90
36134;DHT22;40492;43.524;-1.510;2022-07-10T02:33:02;18.50;99.90
36134;DHT22;40492;43.524;-1.510;2022-07-10T02:35:28;18.40;99.90
36134;DHT22;40492;43.524;-1.510;2022-07-10T02:37:54;18.40;99.90
36134;DHT22;40492;43.524;-1.510;2022-07-10T02:40:20;18.40;99.90
36134;DHT22;40492;43.524;-1.510;2022-07-10T02:42:46;18.40;99.90
36134;DHT22;40492;43.524;-1.510;2022-07-10T02:45:12;18.30;99.90
36134;DHT22;40492;43.524;-1.510;2022-07-10T02:47:38;18.30;99.90
36134;DHT22;40492;43.524;-1.510;2022-07-10T02:50:04;18.30;99.90
36134;DHT22;40492;43.524;-1.510;2022-07-10T02:52:30;18.30;99.90
36134;DHT22;40492;43.524;-1.510;2022-07-10T02:54:58;18.30;99.90
36134;DHT22;40492;43.524;-1.510;2022-07-10T02:57:24;18.30;99.90
36134;DHT22;40492;43.524;-1.510;2022-07-10T02:59:50;18.30;99.90
36134;DHT22;40492;43.524;-1.510;2022-07-10T03:02:16;18.20;99.90
36134;DHT22;40492;43.524;-1.510;2022-07-10T03:04:42;18.20;99.90
36134;DHT22;40492;43.524;-1.510;2022-07-10T03:07:08;18.20;99.90
36134;DHT22;40492;43.524;-1.510;2022-07-10T03:09:34;18.10;99.90
36134;DHT22;40492;43.524;-1.510;2022-07-10T03:12:00;18.10;99.90
36134;DHT22;40492;43.524;-1.510;2022-07-10T03:14:26;18.10;99.90
36134;DHT22;40492;43.524;-1.510;2022-07-10T03:16:52;18.00;99.90
36134;DHT22;40492;43.524;-1.510;2022-07-10T03:19:18;17.90;99.90
36134;DHT22;40492;43.524;-1.510;2022-07-10T03:21:45;17.90;99.90
36134;DHT22;40492;43.524;-1.510;2022-07-10T03:24:11;17.90;99.90
36134;DHT22;40492;43.524;-1.510;2022-07-10T03:26:37;17.80;99.90
36134;DHT22;40492;43.524;-1.510;2022-07-10T03:29:04;17.80;99.90
36134;DHT22;40492;43.524;-1.510;2022-07-10T03:31:30;17.80;99.90
36134;DHT22;40492;43.524;-1.510;2022-07-10T03:33:56;17.80;99.90
36134;DHT22;40492;43.524;-1.510;2022-07-10T03:36:22;17.80;99.90
36134;DHT22;40492;43.524;-1.510;2022-07-10T03:38:47;17.70;99.90
36134;DHT22;40492;43.524;-1.510;2022-07-10T03:41:14;17.70;99.90
36134;DHT22;40492;43.524;-1.510;2022-07-10T03:43:40;17.60;99.90
36134;DHT22;40492;43.524;-1.510;2022-07-10T03:46:06;17.60;99.90
36134;DHT22;40492;43.524;-1.510;2022-07-10T03:48:32;17.50;99.90
36134;DHT22;40492;43.524;-1.510;2022-07-10T03:50:59;17.50;99.90
36134;DHT22;40492;43.524;-1.510;2022-07-10T03:53:25;17.40;99.90
36134;DHT22;40492;43.524;-1.510;2022-07-10T03:55:51;17.40;99.90
36134;DHT22;40492;43.524;-1.510;2022-07-10T03:58:17;17.40;99.90
36134;DHT22;40492;43.524;-1.510;2022-07-10T04:00:43;17.30;99.90
36134;DHT22;40492;43.524;-1.510;2022-07-10T04:03:09;17.30;99.90
36134;DHT22;40492;43.524;-1.510;2022-07-10T04:05:36;17.30;99.90
36134;DHT22;40492;43.524;-1.510;2022-07-10T04:08:03;17.30;99.90
36134;DHT22;40492;43.524;-1.510;2022-07-10T04:10:30;17.30;99.90
36134;DHT22;40492;43.524;-1.510;2022-07-10T04:12:57;17.30;99.90
36134;DHT22;40492;43.524;-1.510;2022-07-10T04:15:24;17.30;99.90
36134;DHT22;40492;43.524;-1.510;2022-07-10T04:17:50;17.30;99.90
36134;DHT22;40492;43.524;-1.510;2022-07-10T04:20:17;17.30;99.90
36134;DHT22;40492;43.524;-1.510;2022-07-10T04:22:44;17.30;99.90
36134;DHT22;40492;43.524;-1.510;2022-07-10T04:25:11;17.30;99.90
36134;DHT22;40492;43.524;-1.510;2022-07-10T04:27:37;17.30;99.90
36134;DHT22;40492;43.524;-1.510;2022-07-10T04:30:04;17.30;99.90
36134;DHT22;40492;43.524;-1.510;2022-07-10T04:32:30;17.30;99.90
36134;DHT22;40492;43.524;-1.510;2022-07-10T04:34:57;17.30;99.90
36134;DHT22;40492;43.524;-1.510;2022-07-10T04:37:23;17.40;99.90
36134;DHT22;40492;43.524;-1.510;2022-07-10T04:39:49;17.30;99.90
36134;DHT22;40492;43.524;-1.510;2022-07-10T04:42:15;17.30;99.90
36134;DHT22;40492;43.524;-1.510;2022-07-10T04:44:41;17.40;99.90
36134;DHT22;40492;43.524;-1.510;2022-07-10T04:47:07;17.40;99.90
36134;DHT22;40492;43.524;-1.510;2022-07-10T04:49:34;17.30;99.90
36134;DHT22;40492;43.524;-1.510;2022-07-10T04:52:00;17.30;99.90
36134;DHT22;40492;43.524;-1.510;2022-07-10T04:54:26;17.30;99.90
36134;DHT22;40492;43.524;-1.510;2022-07-10T04:56:52;17.30;99.90
36134;DHT22;40492;43.524;-1.510;2022-07-10T04:59:18;17.30;99.90
36134;DHT22;40492;43.524;-1.510;2022-07-10T05:01:44;17.30;99.90
36134;DHT22;40492;43.524;-1.510;2022-07-10T05:04:11;17.40;99.90
36134;DHT22;40492;43.524;-1.510;2022-07-10T05:06:38;17.40;99.90
36134;DHT22;40492;43.524;-1.510;2022-07-10T05:09:04;17.40;99.90
36134;DHT22;40492;43.524;-1.510;2022-07-10T05:11:30;17.50;99.90
36134;DHT22;40492;43.524;-1.510;2022-07-10T05:13:57;17.60;99.90
36134;DHT22;40492;43.524;-1.510;2022-07-10T05:16:23;17.60;99.90
36134;DHT22;40492;43.524;-1.510;2022-07-10T05:18:49;17.60;99.90
36134;DHT22;40492;43.524;-1.510;2022-07-10T05:21:15;17.60;99.90
36134;DHT22;40492;43.524;-1.510;2022-07-10T05:23:42;17.60;99.90
36134;DHT22;40492;43.524;-1.510;2022-07-10T05:26:08;17.60;99.90
36134;DHT22;40492;43.524;-1.510;2022-07-10T05:28:34;17.70;99.90
36134;DHT22;40492;43.524;-1.510;2022-07-10T05:31:00;17.70;99.90
36134;DHT22;40492;43.524;-1.510;2022-07-10T05:33:26;17.70;99.90
36134;DHT22;40492;43.524;-1.510;2022-07-10T05:35:53;17.80;99.90
36134;DHT22;40492;43.524;-1.510;2022-07-10T05:38:19;17.80;99.90
36134;DHT22;40492;43.524;-1.510;2022-07-10T05:40:45;17.90;99.90
36134;DHT22;40492;43.524;-1.510;2022-07-10T05:43:12;18.00;99.90
36134;DHT22;40492;43.524;-1.510;2022-07-10T05:45:38;18.10;99.90
36134;DHT22;40492;43.524;-1.510;2022-07-10T05:48:04;18.10;99.90
36134;DHT22;40492;43.524;-1.510;2022-07-10T05:50:30;18.20;99.90
36134;DHT22;40492;43.524;-1.510;2022-07-10T05:52:56;18.30;99.90
36134;DHT22;40492;43.524;-1.510;2022-07-10T05:55:23;18.40;99.90
36134;DHT22;40492;43.524;-1.510;2022-07-10T05:57:49;18.40;99.90
36134;DHT22;40492;43.524;-1.510;2022-07-10T06:00:16;18.60;99.90
36134;DHT22;40492;43.524;-1.510;2022-07-10T06:02:42;18.60;99.90
36134;DHT22;40492;43.524;-1.510;2022-07-10T06:05:08;18.70;99.90
36134;DHT22;40492;43.524;-1.510;2022-07-10T06:07:35;18.80;99.90
36134;DHT22;40492;43.524;-1.510;2022-07-10T06:10:02;18.90;99.90
36134;DHT22;40492;43.524;-1.510;2022-07-10T06:12:29;19.00;99.90
36134;DHT22;40492;43.524;-1.510;2022-07-10T06:14:55;19.10;99.90
36134;DHT22;40492;43.524;-1.510;2022-07-10T06:17:21;19.20;99.90
36134;DHT22;40492;43.524;-1.510;2022-07-10T06:19:47;19.30;99.90
36134;DHT22;40492;43.524;-1.510;2022-07-10T06:22:13;19.30;99.90
36134;DHT22;40492;43.524;-1.510;2022-07-10T06:25:05;19.50;99.90
36134;DHT22;40492;43.524;-1.510;2022-07-10T06:27:32;19.60;99.90
36134;DHT22;40492;43.524;-1.510;2022-07-10T06:29:58;19.70;99.90
36134;DHT22;40492;43.524;-1.510;2022-07-10T06:32:25;19.80;99.90
36134;DHT22;40492;43.524;-1.510;2022-07-10T06:34:54;19.90;99.90
36134;DHT22;40492;43.524;-1.510;2022-07-10T06:37:21;20.00;99.90
36134;DHT22;40492;43.524;-1.510;2022-07-10T06:39:47;20.10;99.90
36134;DHT22;40492;43.524;-1.510;2022-07-10T06:42:14;20.20;99.90
36134;DHT22;40492;43.524;-1.510;2022-07-10T06:44:43;20.30;99.90
36134;DHT22;40492;43.524;-1.510;2022-07-10T06:47:11;20.50;99.90
36134;DHT22;40492;43.524;-1.510;2022-07-10T06:49:56;20.60;99.90
36134;DHT22;40492;43.524;-1.510;2022-07-10T06:52:23;20.70;99.90
36134;DHT22;40492;43.524;-1.510;2022-07-10T06:54:49;20.80;99.90
36134;DHT22;40492;43.524;-1.510;2022-07-10T06:57:16;21.00;99.90
36134;DHT22;40492;43.524;-1.510;2022-07-10T06:59:44;21.10;99.90
36134;DHT22;40492;43.524;-1.510;2022-07-10T07:02:10;21.20;99.90
36134;DHT22;40492;43.524;-1.510;2022-07-10T07:04:36;21.40;99.90
36134;DHT22;40492;43.524;-1.510;2022-07-10T07:07:02;21.50;99.90
36134;DHT22;40492;43.524;-1.510;2022-07-10T07:09:29;21.60;99.90
36134;DHT22;40492;43.524;-1.510;2022-07-10T07:11:55;21.60;99.90
36134;DHT22;40492;43.524;-1.510;2022-07-10T07:14:21;21.80;99.90
36134;DHT22;40492;43.524;-1.510;2022-07-10T07:16:47;21.90;99.90
36134;DHT22;40492;43.524;-1.510;2022-07-10T07:19:24;22.00;99.90
36134;DHT22;40492;43.524;-1.510;2022-07-10T07:22:10;22.10;99.90
36134;DHT22;40492;43.524;-1.510;2022-07-10T07:24:59;22.30;99.90
36134;DHT22;40492;43.524;-1.510;2022-07-10T07:27:26;22.50;99.90
36134;DHT22;40492;43.524;-1.510;2022-07-10T07:29:52;22.70;99.90
36134;DHT22;40492;43.524;-1.510;2022-07-10T07:32:18;22.90;99.90
36134;DHT22;40492;43.524;-1.510;2022-07-10T07:34:44;23.10;99.90
36134;DHT22;40492;43.524;-1.510;2022-07-10T07:37:10;23.20;99.90
36134;DHT22;40492;43.524;-1.510;2022-07-10T07:39:36;23.40;99.90
36134;DHT22;40492;43.524;-1.510;2022-07-10T07:42:03;23.70;99.90
36134;DHT22;40492;43.524;-1.510;2022-07-10T07:44:30;24.00;99.90
36134;DHT22;40492;43.524;-1.510;2022-07-10T07:46:56;24.30;99.90
36134;DHT22;40492;43.524;-1.510;2022-07-10T07:49:22;24.40;99.90
36134;DHT22;40492;43.524;-1.510;2022-07-10T07:51:48;24.50;99.90
36134;DHT22;40492;43.524;-1.510;2022-07-10T07:54:14;24.40;99.90
36134;DHT22;40492;43.524;-1.510;2022-07-10T07:56:42;24.20;99.90
36134;DHT22;40492;43.524;-1.510;2022-07-10T07:59:08;24.00;99.90
36134;DHT22;40492;43.524;-1.510;2022-07-10T08:01:34;23.80;99.90
36134;DHT22;40492;43.524;-1.510;2022-07-10T08:04:00;23.70;99.90
36134;DHT22;40492;43.524;-1.510;2022-07-10T08:06:26;23.70;99.90
36134;DHT22;40492;43.524;-1.510;2022-07-10T08:08:52;23.80;99.90
36134;DHT22;40492;43.524;-1.510;2022-07-10T08:11:18;23.90;99.90
36134;DHT22;40492;43.524;-1.510;2022-07-10T08:13:44;23.80;99.90
36134;DHT22;40492;43.524;-1.510;2022-07-10T08:16:10;23.90;99.90
36134;DHT22;40492;43.524;-1.510;2022-07-10T08:18:36;23.90;99.90
36134;DHT22;40492;43.524;-1.510;2022-07-10T08:21:02;24.00;99.90
36134;DHT22;40492;43.524;-1.510;2022-07-10T08:23:28;24.10;99.90
36134;DHT22;40492;43.524;-1.510;2022-07-10T08:25:54;24.10;99.90
36134;DHT22;40492;43.524;-1.510;2022-07-10T08:28:23;24.10;99.90
36134;DHT22;40492;43.524;-1.510;2022-07-10T08:30:49;24.10;99.90
36134;DHT22;40492;43.524;-1.510;2022-07-10T08:33:15;24.10;99.90
36134;DHT22;40492;43.524;-1.510;2022-07-10T08:35:41;24.10;99.90
36134;DHT22;40492;43.524;-1.510;2022-07-10T08:38:08;24.10;99.90
36134;DHT22;40492;43.524;-1.510;2022-07-10T08:40:35;24.20;99.90
36134;DHT22;40492;43.524;-1.510;2022-07-10T08:43:05;24.20;99.90
36134;DHT22;40492;43.524;-1.510;2022-07-10T08:45:33;24.30;99.90
36134;DHT22;40492;43.524;-1.510;2022-07-10T08:48:03;24.30;99.90
36134;DHT22;40492;43.524;-1.510;2022-07-10T08:50:33;24.40;99.90
36134;DHT22;40492;43.524;-1.510;2022-07-10T08:53:09;24.40;99.90
36134;DHT22;40492;43.524;-1.510;2022-07-10T08:55:38;24.50;99.90
36134;DHT22;40492;43.524;-1.510;2022-07-10T08:58:05;24.70;99.90
36134;DHT22;40492;43.524;-1.510;2022-07-10T09:00:33;24.90;99.90
36134;DHT22;40492;43.524;-1.510;2022-07-10T09:02:59;25.00;99.90
36134;DHT22;40492;43.524;-1.510;2022-07-10T09:05:27;25.10;99.90
36134;DHT22;40492;43.524;-1.510;2022-07-10T09:07:53;25.30;99.90
36134;DHT22;40492;43.524;-1.510;2022-07-10T09:10:21;25.40;99.90
36134;DHT22;40492;43.524;-1.510;2022-07-10T09:12:59;25.50;99.90
36134;DHT22;40492;43.524;-1.510;2022-07-10T09:15:29;25.50;99.90
36134;DHT22;40492;43.524;-1.510;2022-07-10T09:18:05;25.60;99.90
36134;DHT22;40492;43.524;-1.510;2022-07-10T09:20:34;25.80;99.90
36134;DHT22;40492;43.524;-1.510;2022-07-10T09:23:21;25.90;99.90
36134;DHT22;40492;43.524;-1.510;2022-07-10T09:25:50;25.90;99.90
36134;DHT22;40492;43.524;-1.510;2022-07-10T09:28:18;26.00;99.90
36134;DHT22;40492;43.524;-1.510;2022-07-10T09:30:46;26.20;99.90
36134;DHT22;40492;43.524;-1.510;2022-07-10T09:33:19;26.30;99.90
36134;DHT22;40492;43.524;-1.510;2022-07-10T09:36:08;26.40;99.90
36134;DHT22;40492;43.524;-1.510;2022-07-10T09:41:21;26.70;99.90
36134;DHT22;40492;43.524;-1.510;2022-07-10T09:43:59;26.70;99.90
36134;DHT22;40492;43.524;-1.510;2022-07-10T09:46:32;27.00;99.90
36134;DHT22;40492;43.524;-1.510;2022-07-10T09:49:02;27.30;99.90
36134;DHT22;40492;43.524;-1.510;2022-07-10T09:51:34;27.30;99.90
36134;DHT22;40492;43.524;-1.510;2022-07-10T09:54:06;27.50;99.90
36134;DHT22;40492;43.524;-1.510;2022-07-10T09:56:52;27.60;99.90
36134;DHT22;40492;43.524;-1.510;2022-07-10T09:59:21;27.70;99.90
36134;DHT22;40492;43.524;-1.510;2022-07-10T10:01:51;27.80;99.90
36134;DHT22;40492;43.524;-1.510;2022-07-10T10:04:19;27.90;99.90
36134;DHT22;40492;43.524;-1.510;2022-07-10T10:06:50;28.30;99.90
36134;DHT22;40492;43.524;-1.510;2022-07-10T10:09:26;29.00;99.90
36134;DHT22;40492;43.524;-1.510;2022-07-10T10:11:57;30.10;99.90
36134;DHT22;40492;43.524;-1.510;2022-07-10T10:14:25;31.00;99.90
36134;DHT22;40492;43.524;-1.510;2022-07-10T10:16:55;31.70;99.90
36134;DHT22;40492;43.524;-1.510;2022-07-10T10:19:23;32.60;99.90
36134;DHT22;40492;43.524;-1.510;2022-07-10T10:22:08;33.20;99.90
36134;DHT22;40492;43.524;-1.510;2022-07-10T10:24:34;34.00;99.90
36134;DHT22;40492;43.524;-1.510;2022-07-10T10:27:05;35.00;99.90
36134;DHT22;40492;43.524;-1.510;2022-07-10T10:29:34;35.60;99.90
36134;DHT22;40492;43.524;-1.510;2022-07-10T10:32:01;36.30;99.90
36134;DHT22;40492;43.524;-1.510;2022-07-10T10:34:43;36.70;99.90
36134;DHT22;40492;43.524;-1.510;2022-07-10T10:37:39;37.40;99.90
36134;DHT22;40492;43.524;-1.510;2022-07-10T10:40:11;38.10;99.40
36134;DHT22;40492;43.524;-1.510;2022-07-10T10:42:55;38.80;96.90
36134;DHT22;40492;43.524;-1.510;2022-07-10T10:48:07;39.90;91.70
36134;DHT22;40492;43.524;-1.510;2022-07-10T10:53:04;40.20;85.90
36134;DHT22;40492;43.524;-1.510;2022-07-10T10:55:31;40.30;83.60
36134;DHT22;40492;43.524;-1.510;2022-07-10T10:58:15;40.50;81.60
36134;DHT22;40492;43.524;-1.510;2022-07-10T11:00:42;40.70;78.80
36134;DHT22;40492;43.524;-1.510;2022-07-10T11:03:19;41.10;78.50
36134;DHT22;40492;43.524;-1.510;2022-07-10T11:05:47;41.20;76.10
36134;DHT22;40492;43.524;-1.510;2022-07-10T11:08:13;41.10;74.20
36134;DHT22;40492;43.524;-1.510;2022-07-10T11:10:44;40.70;73.10
36134;DHT22;40492;43.524;-1.510;2022-07-10T11:13:17;41.10;73.20
36134;DHT22;40492;43.524;-1.510;2022-07-10T11:15:45;41.90;71.60
36134;DHT22;40492;43.524;-1.510;2022-07-10T11:18:19;42.00;69.60
36134;DHT22;40492;43.524;-1.510;2022-07-10T11:20:49;42.20;68.30
36134;DHT22;40492;43.524;-1.510;2022-07-10T11:23:48;42.40;67.60
36134;DHT22;40492;43.524;-1.510;2022-07-10T11:26:37;42.50;65.20
36134;DHT22;40492;43.524;-1.510;2022-07-10T11:29:06;42.90;64.70
36134;DHT22;40492;43.524;-1.510;2022-07-10T11:31:33;42.90;63.70
36134;DHT22;40492;43.524;-1.510;2022-07-10T11:34:10;42.90;63.10
36134;DHT22;40492;43.524;-1.510;2022-07-10T11:36:39;42.80;63.00
36134;DHT22;40492;43.524;-1.510;2022-07-10T11:39:06;42.90;62.70
36134;DHT22;40492;43.524;-1.510;2022-07-10T11:41:34;43.00;61.50
36134;DHT22;40492;43.524;-1.510;2022-07-10T11:44:04;43.00;61.20
36134;DHT22;40492;43.524;-1.510;2022-07-10T11:46:31;43.00;61.40
36134;DHT22;40492;43.524;-1.510;2022-07-10T11:48:58;43.00;60.60
36134;DHT22;40492;43.524;-1.510;2022-07-10T11:51:27;42.80;60.20
36134;DHT22;40492;43.524;-1.510;2022-07-10T11:56:25;43.10;59.60
36134;DHT22;40492;43.524;-1.510;2022-07-10T11:59:02;42.80;59.30
36134;DHT22;40492;43.524;-1.510;2022-07-10T12:01:30;42.80;59.70
36134;DHT22;40492;43.524;-1.510;2022-07-10T12:06:25;42.60;58.30
36134;DHT22;40492;43.524;-1.510;2022-07-10T12:08:52;42.80;59.00
36134;DHT22;40492;43.524;-1.510;2022-07-10T12:11:20;42.90;58.10
36134;DHT22;40492;43.524;-1.510;2022-07-10T12:13:48;42.60;58.10
36134;DHT22;40492;43.524;-1.510;2022-07-10T12:16:15;42.70;57.60
36134;DHT22;40492;43.524;-1.510;2022-07-10T12:18:42;43.20;57.70
36134;DHT22;40492;43.524;-1.510;2022-07-10T12:21:12;43.30;57.10
36134;DHT22;40492;43.524;-1.510;2022-07-10T12:23:39;43.50;56.80
36134;DHT22;40492;43.524;-1.510;2022-07-10T12:26:10;43.50;56.90
36134;DHT22;40492;43.524;-1.510;2022-07-10T12:28:54;43.50;56.90
36134;DHT22;40492;43.524;-1.510;2022-07-10T12:31:28;43.50;56.40
36134;DHT22;40492;43.524;-1.510;2022-07-10T12:34:01;43.80;56.30
36134;DHT22;40492;43.524;-1.510;2022-07-10T12:36:51;43.70;55.90
36134;DHT22;40492;43.524;-1.510;2022-07-10T12:39:24;43.90;55.60
36134;DHT22;40492;43.524;-1.510;2022-07-10T12:42:04;44.30;55.40
36134;DHT22;40492;43.524;-1.510;2022-07-10T12:44:35;44.50;55.30
36134;DHT22;40492;43.524;-1.510;2022-07-10T12:49:57;45.00;54.40
36134;DHT22;40492;43.524;-1.510;2022-07-10T12:52:31;45.30;53.80
36134;DHT22;40492;43.524;-1.510;2022-07-10T12:55:17;45.30;53.70
36134;DHT22;40492;43.524;-1.510;2022-07-10T12:57:52;45.40;53.00
36134;DHT22;40492;43.524;-1.510;2022-07-10T13:00:24;45.20;52.90
36134;DHT22;40492;43.524;-1.510;2022-07-10T13:02:58;45.50;52.80
36134;DHT22;40492;43.524;-1.510;2022-07-10T13:05:32;45.50;52.60
36134;DHT22;40492;43.524;-1.510;2022-07-10T13:08:16;45.40;52.70
36134;DHT22;40492;43.524;-1.510;2022-07-10T13:10:50;45.20;52.50
36134;DHT22;40492;43.524;-1.510;2022-07-10T13:13:17;44.90;52.90
36134;DHT22;40492;43.524;-1.510;2022-07-10T13:15:44;44.10;53.70
36134;DHT22;40492;43.524;-1.510;2022-07-10T13:18:17;43.40;54.80
36134;DHT22;40492;43.524;-1.510;2022-07-10T13:20:48;42.50;55.90
36134;DHT22;40492;43.524;-1.510;2022-07-10T13:23:15;41.50;57.50
36134;DHT22;40492;43.524;-1.510;2022-07-10T13:25:42;40.50;58.60
36134;DHT22;40492;43.524;-1.510;2022-07-10T13:28:10;39.70;60.20
36134;DHT22;40492;43.524;-1.510;2022-07-10T13:30:37;39.10;61.70
36134;DHT22;40492;43.524;-1.510;2022-07-10T13:33:03;38.50;63.40
36134;DHT22;40492;43.524;-1.510;2022-07-10T13:35:31;37.90;64.80
36134;DHT22;40492;43.524;-1.510;2022-07-10T13:37:59;37.50;66.40
36134;DHT22;40492;43.524;-1.510;2022-07-10T13:40:31;37.10;67.70
36134;DHT22;40492;43.524;-1.510;2022-07-10T13:42:58;36.70;69.00
36134;DHT22;40492;43.524;-1.510;2022-07-10T13:45:25;36.40;70.00
36134;DHT22;40492;43.524;-1.510;2022-07-10T13:47:52;36.10;70.90
36134;DHT22;40492;43.524;-1.510;2022-07-10T13:50:20;36.00;71.90
36134;DHT22;40492;43.524;-1.510;2022-07-10T13:52:46;35.90;72.60
36134;DHT22;40492;43.524;-1.510;2022-07-10T13:55:12;35.70;73.00
36134;DHT22;40492;43.524;-1.510;2022-07-10T13:57:39;35.40;74.00
36134;DHT22;40492;43.524;-1.510;2022-07-10T14:00:06;35.40;74.40
36134;DHT22;40492;43.524;-1.510;2022-07-10T14:02:33;35.20;74.50
36134;DHT22;40492;43.524;-1.510;2022-07-10T14:04:59;35.00;75.00
36134;DHT22;40492;43.524;-1.510;2022-07-10T14:07:25;35.00;75.70
36134;DHT22;40492;43.524;-1.510;2022-07-10T14:09:51;34.90;76.10
36134;DHT22;40492;43.524;-1.510;2022-07-10T14:12:17;34.90;76.70
36134;DHT22;40492;43.524;-1.510;2022-07-10T14:14:43;34.70;77.40
36134;DHT22;40492;43.524;-1.510;2022-07-10T14:17:09;34.60;78.10
36134;DHT22;40492;43.524;-1.510;2022-07-10T14:19:35;34.60;79.50
36134;DHT22;40492;43.524;-1.510;2022-07-10T14:22:02;34.40;78.20
36134;DHT22;40492;43.524;-1.510;2022-07-10T14:24:28;34.40;78.50
36134;DHT22;40492;43.524;-1.510;2022-07-10T14:26:54;34.40;79.00
36134;DHT22;40492;43.524;-1.510;2022-07-10T14:29:20;34.50;79.70
36134;DHT22;40492;43.524;-1.510;2022-07-10T14:31:46;34.40;79.90
36134;DHT22;40492;43.524;-1.510;2022-07-10T14:34:18;34.30;79.80
36134;DHT22;40492;43.524;-1.510;2022-07-10T14:36:44;34.40;79.90
36134;DHT22;40492;43.524;-1.510;2022-07-10T14:39:11;34.30;79.60
36134;DHT22;40492;43.524;-1.510;2022-07-10T14:41:39;34.30;79.70
36134;DHT22;40492;43.524;-1.510;2022-07-10T14:44:06;34.50;79.30
36134;DHT22;40492;43.524;-1.510;2022-07-10T14:46:32;34.40;78.30
36134;DHT22;40492;43.524;-1.510;2022-07-10T14:48:59;34.40;78.10
36134;DHT22;40492;43.524;-1.510;2022-07-10T14:51:25;34.40;77.90
36134;DHT22;40492;43.524;-1.510;2022-07-10T14:53:51;34.50;78.00
36134;DHT22;40492;43.524;-1.510;2022-07-10T14:56:17;34.60;77.40
36134;DHT22;40492;43.524;-1.510;2022-07-10T14:58:45;34.50;76.90
36134;DHT22;40492;43.524;-1.510;2022-07-10T15:01:12;34.60;76.20
36134;DHT22;40492;43.524;-1.510;2022-07-10T15:03:38;34.60;75.40
36134;DHT22;40492;43.524;-1.510;2022-07-10T15:06:05;34.70;74.90
36134;DHT22;40492;43.524;-1.510;2022-07-10T15:08:31;34.70;74.80
36134;DHT22;40492;43.524;-1.510;2022-07-10T15:10:57;34.60;74.30
36134;DHT22;40492;43.524;-1.510;2022-07-10T15:13:25;34.70;73.60
36134;DHT22;40492;43.524;-1.510;2022-07-10T15:15:52;34.80;72.90
36134;DHT22;40492;43.524;-1.510;2022-07-10T15:18:19;34.80;72.00
36134;DHT22;40492;43.524;-1.510;2022-07-10T15:20:45;34.70;71.90
36134;DHT22;40492;43.524;-1.510;2022-07-10T15:23:12;34.60;71.80
36134;DHT22;40492;43.524;-1.510;2022-07-10T15:25:41;34.50;71.80
36134;DHT22;40492;43.524;-1.510;2022-07-10T15:28:08;34.60;71.20
36134;DHT22;40492;43.524;-1.510;2022-07-10T15:30:35;34.60;70.80
36134;DHT22;40492;43.524;-1.510;2022-07-10T15:33:02;34.70;70.40
36134;DHT22;40492;43.524;-1.510;2022-07-10T15:35:29;34.50;70.30
36134;DHT22;40492;43.524;-1.510;2022-07-10T15:37:55;34.50;69.80